sensor_id;sensor_type;location;lat;lon;timestamp;P1;durP1;ratioP1;P2;durP2;ratioP2
66145;SDS011;52948;60.040;30.320;2023-07-28T00:01:40;1.95;;;1.48;;
66145;SDS011;52948;60.040;30.320;2023-07-28T00:06:43;2.05;;;1.42;;
66145;SDS011;52948;60.040;30.320;2023-07-28T00:11:45;3.10;;;1.30;;
66145;SDS011;52948;60.040;30.320;2023-07-28T00:16:47;2.78;;;1.23;;
66145;SDS011;52948;60.040;30.320;2023-07-28T00:21:49;1.80;;;1.30;;
66145;SDS011;52948;60.040;30.320;2023-07-28T00:26:52;3.80;;;1.48;;
66145;SDS011;52948;60.040;30.320;2023-07-28T00:31:54;1.48;;;1.20;;
66145;SDS011;52948;60.040;30.320;2023-07-28T00:36:56;1.30;;;1.20;;
66145;SDS011;52948;60.040;30.320;2023-07-28T00:41:58;2.22;;;1.05;;
66145;SDS011;52948;60.040;30.320;2023-07-28T00:47:01;1.95;;;1.20;;
66145;SDS011;52948;60.040;30.320;2023-07-28T00:52:03;2.33;;;1.10;;
66145;SDS011;52948;60.040;30.320;2023-07-28T00:57:05;2.42;;;1.33;;
66145;SDS011;52948;60.040;30.320;2023-07-28T01:02:08;1.52;;;1.15;;
66145;SDS011;52948;60.040;30.320;2023-07-28T01:07:12;3.17;;;1.33;;
66145;SDS011;52948;60.040;30.320;2023-07-28T01:12:16;1.53;;;1.30;;
66145;SDS011;52948;60.040;30.320;2023-07-28T01:17:18;1.48;;;1.05;;
66145;SDS011;52948;60.040;30.320;2023-07-28T01:27:35;2.22;;;1.50;;
66145;SDS011;52948;60.040;30.320;2023-07-28T01:32:39;3.08;;;1.33;;
66145;SDS011;52948;60.040;30.320;2023-07-28T01:37:41;2.03;;;1.15;;
66145;SDS011;52948;60.040;30.320;2023-07-28T01:42:43;1.63;;;1.23;;
66145;SDS011;52948;60.040;30.320;2023-07-28T01:47:46;2.15;;;1.20;;
66145;SDS011;52948;60.040;30.320;2023-07-28T01:52:48;1.63;;;1.33;;
66145;SDS011;52948;60.040;30.320;2023-07-28T01:57:54;1.83;;;1.30;;
66145;SDS011;52948;60.040;30.320;2023-07-28T02:02:57;3.55;;;1.30;;
66145;SDS011;52948;60.040;30.320;2023-07-28T02:08:00;1.20;;;1.10;;
66145;SDS011;52948;60.040;30.320;2023-07-28T02:13:02;4.15;;;1.63;;
66145;SDS011;52948;60.040;30.320;2023-07-28T02:18:04;2.03;;;1.40;;
66145;SDS011;52948;60.040;30.320;2023-07-28T02:23:07;1.30;;;1.20;;
66145;SDS011;52948;60.040;30.320;2023-07-28T02:28:09;2.53;;;1.60;;
66145;SDS011;52948;60.040;30.320;2023-07-28T02:33:12;2.33;;;1.30;;
66145;SDS011;52948;60.040;30.320;2023-07-28T02:38:14;2.00;;;1.50;;
66145;SDS011;52948;60.040;30.320;2023-07-28T02:43:16;4.00;;;1.48;;
66145;SDS011;52948;60.040;30.320;2023-07-28T02:48:18;1.98;;;1.23;;
66145;SDS011;52948;60.040;30.320;2023-07-28T02:53:22;1.85;;;1.30;;
66145;SDS011;52948;60.040;30.320;2023-07-28T02:58:24;2.75;;;1.55;;
66145;SDS011;52948;60.040;30.320;2023-07-28T03:03:27;2.40;;;1.35;;
66145;SDS011;52948;60.040;30.320;2023-07-28T03:08:29;2.08;;;1.25;;
66145;SDS011;52948;60.040;30.320;2023-07-28T03:13:48;2.33;;;1.50;;
66145;SDS011;52948;60.040;30.320;2023-07-28T03:18:50;2.05;;;1.60;;
66145;SDS011;52948;60.040;30.320;2023-07-28T03:23:53;1.80;;;1.50;;
66145;SDS011;52948;60.040;30.320;2023-07-28T03:28:55;2.15;;;1.80;;
66145;SDS011;52948;60.040;30.320;2023-07-28T03:33:57;1.60;;;1.42;;
66145;SDS011;52948;60.040;30.320;2023-07-28T03:39:01;3.17;;;1.10;;
66145;SDS011;52948;60.040;30.320;2023-07-28T03:44:04;2.22;;;1.67;;
66145;SDS011;52948;60.040;30.320;2023-07-28T03:49:06;3.28;;;2.40;;
66145;SDS011;52948;60.040;30.320;2023-07-28T03:54:08;2.72;;;1.60;;
66145;SDS011;52948;60.040;30.320;2023-07-28T03:59:10;4.53;;;1.52;;
66145;SDS011;52948;60.040;30.320;2023-07-28T04:04:13;4.07;;;1.38;;
66145;SDS011;52948;60.040;30.320;2023-07-28T04:09:16;3.47;;;1.25;;
66145;SDS011;52948;60.040;30.320;2023-07-28T04:14:18;2.35;;;1.23;;
66145;SDS011;52948;60.040;30.320;2023-07-28T04:19:21;4.68;;;2.28;;
66145;SDS011;52948;60.040;30.320;2023-07-28T04:24:24;3.78;;;1.80;;
66145;SDS011;52948;60.040;30.320;2023-07-28T04:29:27;2.60;;;1.98;;
66145;SDS011;52948;60.040;30.320;2023-07-28T04:34:29;2.17;;;1.92;;
66145;SDS011;52948;60.040;30.320;2023-07-28T04:39:44;2.95;;;2.25;;
66145;SDS011;52948;60.040;30.320;2023-07-28T04:44:48;3.03;;;2.53;;
66145;SDS011;52948;60.040;30.320;2023-07-28T04:49:53;3.05;;;2.03;;
66145;SDS011;52948;60.040;30.320;2023-07-28T04:55:33;5.00;;;1.90;;
66145;SDS011;52948;60.040;30.320;2023-07-28T05:00:36;2.83;;;1.98;;
66145;SDS011;52948;60.040;30.320;2023-07-28T05:05:39;3.10;;;1.95;;
66145;SDS011;52948;60.040;30.320;2023-07-28T05:10:43;3.45;;;1.63;;
66145;SDS011;52948;60.040;30.320;2023-07-28T05:15:46;1.70;;;1.60;;
66145;SDS011;52948;60.040;30.320;2023-07-28T05:20:59;2.45;;;1.42;;
66145;SDS011;52948;60.040;30.320;2023-07-28T05:26:01;1.92;;;1.35;;
66145;SDS011;52948;60.040;30.320;2023-07-28T05:31:04;3.50;;;1.15;;
66145;SDS011;52948;60.040;30.320;2023-07-28T05:36:07;1.60;;;1.00;;
66145;SDS011;52948;60.040;30.320;2023-07-28T05:41:09;5.00;;;1.25;;
66145;SDS011;52948;60.040;30.320;2023-07-28T05:46:12;2.83;;;1.05;;
66145;SDS011;52948;60.040;30.320;2023-07-28T05:51:19;3.13;;;1.05;;
66145;SDS011;52948;60.040;30.320;2023-07-28T05:56:22;3.47;;;1.27;;
66145;SDS011;52948;60.040;30.320;2023-07-28T06:01:25;2.65;;;1.17;;
66145;SDS011;52948;60.040;30.320;2023-07-28T06:06:47;1.88;;;1.15;;
66145;SDS011;52948;60.040;30.320;2023-07-28T06:11:52;2.45;;;1.30;;
66145;SDS011;52948;60.040;30.320;2023-07-28T06:16:54;4.78;;;1.05;;
66145;SDS011;52948;60.040;30.320;2023-07-28T06:21:57;1.52;;;1.17;;
66145;SDS011;52948;60.040;30.320;2023-07-28T06:27:00;1.05;;;0.90;;
66145;SDS011;52948;60.040;30.320;2023-07-28T06:32:05;3.33;;;1.10;;
66145;SDS011;52948;60.040;30.320;2023-07-28T06:37:08;1.65;;;1.23;;
66145;SDS011;52948;60.040;30.320;2023-07-28T06:42:10;2.63;;;1.50;;
66145;SDS011;52948;60.040;30.320;2023-07-28T06:47:15;1.23;;;0.95;;
66145;SDS011;52948;60.040;30.320;2023-07-28T06:52:17;2.38;;;0.88;;
66145;SDS011;52948;60.040;30.320;2023-07-28T06:57:20;1.42;;;1.20;;
66145;SDS011;52948;60.040;30.320;2023-07-28T07:02:23;2.25;;;1.00;;
66145;SDS011;52948;60.040;30.320;2023-07-28T07:07:25;1.77;;;1.10;;
66145;SDS011;52948;60.040;30.320;2023-07-28T07:12:27;1.35;;;1.10;;
66145;SDS011;52948;60.040;30.320;2023-07-28T07:17:29;1.85;;;1.10;;
66145;SDS011;52948;60.040;30.320;2023-07-28T07:22:31;2.40;;;1.17;;
66145;SDS011;52948;60.040;30.320;2023-07-28T07:27:34;2.83;;;1.20;;
66145;SDS011;52948;60.040;30.320;2023-07-28T07:32:36;1.27;;;1.00;;
66145;SDS011;52948;60.040;30.320;2023-07-28T07:37:38;1.52;;;1.13;;
66145;SDS011;52948;60.040;30.320;2023-07-28T07:42:41;3.00;;;1.27;;
66145;SDS011;52948;60.040;30.320;2023-07-28T07:47:50;2.92;;;1.20;;
66145;SDS011;52948;60.040;30.320;2023-07-28T07:52:52;2.58;;;1.27;;
66145;SDS011;52948;60.040;30.320;2023-07-28T07:57:55;3.63;;;1.50;;
66145;SDS011;52948;60.040;30.320;2023-07-28T08:02:57;1.65;;;1.20;;
66145;SDS011;52948;60.040;30.320;2023-07-28T08:08:00;5.03;;;1.80;;
66145;SDS011;52948;60.040;30.320;2023-07-28T08:13:03;1.38;;;1.27;;
66145;SDS011;52948;60.040;30.320;2023-07-28T08:18:05;4.05;;;2.13;;
66145;SDS011;52948;60.040;30.320;2023-07-28T08:23:07;4.93;;;1.92;;
66145;SDS011;52948;60.040;30.320;2023-07-28T08:28:10;3.97;;;1.80;;
66145;SDS011;52948;60.040;30.320;2023-07-28T08:33:12;1.75;;;1.40;;
66145;SDS011;52948;60.040;30.320;2023-07-28T08:38:14;4.38;;;1.60;;
66145;SDS011;52948;60.040;30.320;2023-07-28T08:43:16;2.55;;;1.65;;
66145;SDS011;52948;60.040;30.320;2023-07-28T08:48:18;1.88;;;1.45;;
66145;SDS011;52948;60.040;30.320;2023-07-28T08:53:20;2.88;;;1.55;;
66145;SDS011;52948;60.040;30.320;2023-07-28T08:58:23;1.60;;;1.40;;
66145;SDS011;52948;60.040;30.320;2023-07-28T09:03:26;3.08;;;1.40;;
66145;SDS011;52948;60.040;30.320;2023-07-28T09:08:32;2.17;;;1.10;;
66145;SDS011;52948;60.040;30.320;2023-07-28T09:13:41;1.73;;;1.27;;
66145;SDS011;52948;60.040;30.320;2023-07-28T09:18:44;1.63;;;0.75;;
66145;SDS011;52948;60.040;30.320;2023-07-28T09:23:46;1.00;;;0.80;;
66145;SDS011;52948;60.040;30.320;2023-07-28T09:28:49;0.73;;;0.70;;
66145;SDS011;52948;60.040;30.320;2023-07-28T09:33:52;1.85;;;1.08;;
66145;SDS011;52948;60.040;30.320;2023-07-28T09:38:54;1.25;;;1.00;;
66145;SDS011;52948;60.040;30.320;2023-07-28T09:43:57;2.25;;;0.80;;
66145;SDS011;52948;60.040;30.320;2023-07-28T09:48:59;3.05;;;0.88;;
66145;SDS011;52948;60.040;30.320;2023-07-28T09:54:16;1.80;;;1.67;;
66145;SDS011;52948;60.040;30.320;2023-07-28T09:59:32;3.38;;;1.23;;
66145;SDS011;52948;60.040;30.320;2023-07-28T10:04:37;3.53;;;1.02;;
66145;SDS011;52948;60.040;30.320;2023-07-28T10:09:39;2.42;;;0.93;;
66145;SDS011;52948;60.040;30.320;2023-07-28T10:14:41;0.80;;;0.70;;
66145;SDS011;52948;60.040;30.320;2023-07-28T10:19:44;1.42;;;0.93;;
66145;SDS011;52948;60.040;30.320;2023-07-28T10:24:49;2.40;;;1.15;;
66145;SDS011;52948;60.040;30.320;2023-07-28T10:29:57;1.20;;;0.90;;
66145;SDS011;52948;60.040;30.320;2023-07-28T10:35:01;4.20;;;1.23;;
66145;SDS011;52948;60.040;30.320;2023-07-28T10:45:37;2.10;;;1.08;;
66145;SDS011;52948;60.040;30.320;2023-07-28T10:50:39;2.22;;;1.17;;
66145;SDS011;52948;60.040;30.320;2023-07-28T10:55:41;1.08;;;1.00;;
66145;SDS011;52948;60.040;30.320;2023-07-28T11:00:43;2.60;;;0.80;;
66145;SDS011;52948;60.040;30.320;2023-07-28T11:05:47;1.85;;;0.90;;
66145;SDS011;52948;60.040;30.320;2023-07-28T11:10:50;1.27;;;0.77;;
66145;SDS011;52948;60.040;30.320;2023-07-28T11:15:52;2.65;;;1.30;;
66145;SDS011;52948;60.040;30.320;2023-07-28T11:20:54;1.52;;;0.95;;
66145;SDS011;52948;60.040;30.320;2023-07-28T11:25:56;1.17;;;1.05;;
66145;SDS011;52948;60.040;30.320;2023-07-28T11:30:58;3.15;;;1.20;;
66145;SDS011;52948;60.040;30.320;2023-07-28T11:36:01;1.92;;;1.10;;
66145;SDS011;52948;60.040;30.320;2023-07-28T11:41:03;2.30;;;1.20;;
66145;SDS011;52948;60.040;30.320;2023-07-28T11:46:31;1.60;;;1.00;;
66145;SDS011;52948;60.040;30.320;2023-07-28T11:51:41;3.33;;;1.42;;
66145;SDS011;52948;60.040;30.320;2023-07-28T11:56:45;2.10;;;1.20;;
66145;SDS011;52948;60.040;30.320;2023-07-28T12:01:54;2.88;;;1.17;;
66145;SDS011;52948;60.040;30.320;2023-07-28T12:12:13;2.95;;;1.25;;
66145;SDS011;52948;60.040;30.320;2023-07-28T12:17:23;1.77;;;1.20;;
66145;SDS011;52948;60.040;30.320;2023-07-28T12:22:27;2.03;;;1.42;;
66145;SDS011;52948;60.040;30.320;2023-07-28T12:27:30;2.28;;;1.20;;
66145;SDS011;52948;60.040;30.320;2023-07-28T12:32:32;1.58;;;1.23;;
66145;SDS011;52948;60.040;30.320;2023-07-28T12:37:34;1.33;;;1.10;;
66145;SDS011;52948;60.040;30.320;2023-07-28T12:42:37;2.53;;;1.38;;
66145;SDS011;52948;60.040;30.320;2023-07-28T12:47:39;2.63;;;1.40;;
66145;SDS011;52948;60.040;30.320;2023-07-28T12:52:42;2.83;;;1.30;;
66145;SDS011;52948;60.040;30.320;2023-07-28T12:57:44;2.00;;;1.30;;
66145;SDS011;52948;60.040;30.320;2023-07-28T13:02:47;2.88;;;1.35;;
66145;SDS011;52948;60.040;30.320;2023-07-28T13:07:49;1.77;;;1.10;;
66145;SDS011;52948;60.040;30.320;2023-07-28T13:12:51;2.83;;;1.40;;
66145;SDS011;52948;60.040;30.320;2023-07-28T13:17:53;2.05;;;1.55;;
66145;SDS011;52948;60.040;30.320;2023-07-28T13:22:55;2.22;;;1.50;;
66145;SDS011;52948;60.040;30.320;2023-07-28T13:27:57;2.47;;;1.80;;
66145;SDS011;52948;60.040;30.320;2023-07-28T13:33:00;2.80;;;1.92;;
66145;SDS011;52948;60.040;30.320;2023-07-28T13:38:03;5.90;;;1.75;;
66145;SDS011;52948;60.040;30.320;2023-07-28T13:43:05;3.88;;;1.95;;
66145;SDS011;52948;60.040;30.320;2023-07-28T13:48:08;1.95;;;1.60;;
66145;SDS011;52948;60.040;30.320;2023-07-28T13:53:10;1.95;;;1.60;;
66145;SDS011;52948;60.040;30.320;2023-07-28T13:58:12;2.70;;;1.90;;
66145;SDS011;52948;60.040;30.320;2023-07-28T14:03:14;3.17;;;1.73;;
66145;SDS011;52948;60.040;30.320;2023-07-28T14:08:17;1.80;;;1.63;;
66145;SDS011;52948;60.040;30.320;2023-07-28T14:13:20;2.65;;;1.33;;
66145;SDS011;52948;60.040;30.320;2023-07-28T14:18:22;1.88;;;1.40;;
66145;SDS011;52948;60.040;30.320;2023-07-28T14:23:25;6.45;;;1.73;;
66145;SDS011;52948;60.040;30.320;2023-07-28T14:28:28;2.63;;;1.75;;
66145;SDS011;52948;60.040;30.320;2023-07-28T14:33:30;3.53;;;1.60;;
66145;SDS011;52948;60.040;30.320;2023-07-28T14:38:32;3.08;;;1.60;;
66145;SDS011;52948;60.040;30.320;2023-07-28T14:43:35;3.13;;;1.70;;
66145;SDS011;52948;60.040;30.320;2023-07-28T14:48:37;2.53;;;1.80;;
66145;SDS011;52948;60.040;30.320;2023-07-28T14:53:39;2.05;;;1.40;;
66145;SDS011;52948;60.040;30.320;2023-07-28T14:58:42;2.85;;;2.40;;
66145;SDS011;52948;60.040;30.320;2023-07-28T15:03:44;2.80;;;1.67;;
66145;SDS011;52948;60.040;30.320;2023-07-28T15:08:46;2.85;;;1.88;;
66145;SDS011;52948;60.040;30.320;2023-07-28T15:13:50;2.45;;;1.40;;
66145;SDS011;52948;60.040;30.320;2023-07-28T15:18:53;3.15;;;1.20;;
66145;SDS011;52948;60.040;30.320;2023-07-28T15:23:55;1.63;;;1.42;;
66145;SDS011;52948;60.040;30.320;2023-07-28T15:28:58;3.22;;;1.60;;
66145;SDS011;52948;60.040;30.320;2023-07-28T15:34:03;2.60;;;1.40;;
66145;SDS011;52948;60.040;30.320;2023-07-28T15:39:05;3.50;;;1.25;;
66145;SDS011;52948;60.040;30.320;2023-07-28T15:44:07;2.67;;;1.40;;
66145;SDS011;52948;60.040;30.320;2023-07-28T15:49:11;1.98;;;1.30;;
66145;SDS011;52948;60.040;30.320;2023-07-28T15:54:13;3.42;;;1.30;;
66145;SDS011;52948;60.040;30.320;2023-07-28T15:59:15;2.13;;;1.38;;
66145;SDS011;52948;60.040;30.320;2023-07-28T16:04:18;2.58;;;1.30;;
66145;SDS011;52948;60.040;30.320;2023-07-28T16:09:20;3.13;;;1.13;;
66145;SDS011;52948;60.040;30.320;2023-07-28T16:14:22;2.10;;;1.10;;
66145;SDS011;52948;60.040;30.320;2023-07-28T16:19:24;2.00;;;1.23;;
66145;SDS011;52948;60.040;30.320;2023-07-28T16:24:27;2.80;;;1.00;;
66145;SDS011;52948;60.040;30.320;2023-07-28T16:29:29;3.25;;;1.42;;
66145;SDS011;52948;60.040;30.320;2023-07-28T16:34:31;3.08;;;1.48;;
66145;SDS011;52948;60.040;30.320;2023-07-28T16:39:33;2.75;;;1.33;;
66145;SDS011;52948;60.040;30.320;2023-07-28T16:44:35;1.48;;;1.00;;
66145;SDS011;52948;60.040;30.320;2023-07-28T16:49:37;2.22;;;0.90;;
66145;SDS011;52948;60.040;30.320;2023-07-28T16:54:40;2.60;;;0.70;;
66145;SDS011;52948;60.040;30.320;2023-07-28T16:59:42;1.30;;;0.98;;
66145;SDS011;52948;60.040;30.320;2023-07-28T17:04:44;3.03;;;0.90;;
66145;SDS011;52948;60.040;30.320;2023-07-28T17:09:47;2.95;;;1.00;;
66145;SDS011;52948;60.040;30.320;2023-07-28T17:14:49;3.22;;;1.80;;
66145;SDS011;52948;60.040;30.320;2023-07-28T17:19:51;3.40;;;1.77;;
66145;SDS011;52948;60.040;30.320;2023-07-28T17:24:53;0.90;;;0.90;;
66145;SDS011;52948;60.040;30.320;2023-07-28T17:29:55;2.50;;;0.70;;
66145;SDS011;52948;60.040;30.320;2023-07-28T17:35:00;1.60;;;1.08;;
66145;SDS011;52948;60.040;30.320;2023-07-28T17:40:03;1.92;;;0.60;;
66145;SDS011;52948;60.040;30.320;2023-07-28T17:45:05;1.67;;;0.85;;
66145;SDS011;52948;60.040;30.320;2023-07-28T17:50:09;2.08;;;0.77;;
66145;SDS011;52948;60.040;30.320;2023-07-28T17:55:11;1.27;;;0.80;;
66145;SDS011;52948;60.040;30.320;2023-07-28T18:00:14;1.67;;;0.70;;
66145;SDS011;52948;60.040;30.320;2023-07-28T18:05:16;1.30;;;0.80;;
66145;SDS011;52948;60.040;30.320;2023-07-28T18:10:19;1.27;;;0.63;;
66145;SDS011;52948;60.040;30.320;2023-07-28T18:15:21;2.22;;;1.00;;
66145;SDS011;52948;60.040;30.320;2023-07-28T18:20:23;2.67;;;1.13;;
66145;SDS011;52948;60.040;30.320;2023-07-28T18:25:26;1.58;;;1.05;;
66145;SDS011;52948;60.040;30.320;2023-07-28T18:30:29;3.78;;;0.90;;
66145;SDS011;52948;60.040;30.320;2023-07-28T18:35:31;1.65;;;1.00;;
66145;SDS011;52948;60.040;30.320;2023-07-28T18:40:34;1.67;;;1.00;;
66145;SDS011;52948;60.040;30.320;2023-07-28T18:45:36;2.17;;;1.33;;
66145;SDS011;52948;60.040;30.320;2023-07-28T18:50:38;1.42;;;1.10;;
66145;SDS011;52948;60.040;30.320;2023-07-28T18:55:43;2.33;;;1.20;;
66145;SDS011;52948;60.040;30.320;2023-07-28T19:00:45;3.40;;;1.38;;
66145;SDS011;52948;60.040;30.320;2023-07-28T19:05:47;2.28;;;1.30;;
66145;SDS011;52948;60.040;30.320;2023-07-28T19:10:49;1.23;;;0.90;;
66145;SDS011;52948;60.040;30.320;2023-07-28T19:15:51;2.40;;;1.00;;
66145;SDS011;52948;60.040;30.320;2023-07-28T19:20:53;2.15;;;1.05;;
66145;SDS011;52948;60.040;30.320;2023-07-28T19:25:56;2.63;;;1.30;;
66145;SDS011;52948;60.040;30.320;2023-07-28T19:30:58;1.20;;;0.80;;
66145;SDS011;52948;60.040;30.320;2023-07-28T19:36:05;2.20;;;0.98;;
66145;SDS011;52948;60.040;30.320;2023-07-28T19:41:08;2.88;;;1.25;;
66145;SDS011;52948;60.040;30.320;2023-07-28T19:46:11;2.17;;;1.30;;
66145;SDS011;52948;60.040;30.320;2023-07-28T19:51:14;2.22;;;1.10;;
66145;SDS011;52948;60.040;30.320;2023-07-28T19:56:16;1.33;;;1.10;;
66145;SDS011;52948;60.040;30.320;2023-07-28T20:01:18;1.75;;;1.00;;
66145;SDS011;52948;60.040;30.320;2023-07-28T20:06:20;3.88;;;1.00;;
66145;SDS011;52948;60.040;30.320;2023-07-28T20:11:22;2.67;;;1.30;;
66145;SDS011;52948;60.040;30.320;2023-07-28T20:16:25;1.25;;;1.08;;
66145;SDS011;52948;60.040;30.320;2023-07-28T20:21:27;2.15;;;1.02;;
66145;SDS011;52948;60.040;30.320;2023-07-28T20:26:29;3.08;;;1.15;;
66145;SDS011;52948;60.040;30.320;2023-07-28T20:31:31;1.48;;;1.20;;
66145;SDS011;52948;60.040;30.320;2023-07-28T20:36:34;1.45;;;1.10;;
66145;SDS011;52948;60.040;30.320;2023-07-28T20:41:36;1.80;;;1.25;;
66145;SDS011;52948;60.040;30.320;2023-07-28T20:46:38;2.28;;;1.23;;
66145;SDS011;52948;60.040;30.320;2023-07-28T20:51:40;2.40;;;1.00;;
66145;SDS011;52948;60.040;30.320;2023-07-28T20:56:42;2.28;;;0.90;;
66145;SDS011;52948;60.040;30.320;2023-07-28T21:01:44;1.27;;;0.98;;
66145;SDS011;52948;60.040;30.320;2023-07-28T21:06:52;2.33;;;1.20;;
66145;SDS011;52948;60.040;30.320;2023-07-28T21:11:54;1.83;;;1.10;;
66145;SDS011;52948;60.040;30.320;2023-07-28T21:16:56;1.58;;;1.10;;
66145;SDS011;52948;60.040;30.320;2023-07-28T21:21:58;1.52;;;1.05;;
66145;SDS011;52948;60.040;30.320;2023-07-28T21:27:00;2.70;;;1.50;;
66145;SDS011;52948;60.040;30.320;2023-07-28T21:32:04;1.67;;;1.20;;
66145;SDS011;52948;60.040;30.320;2023-07-28T21:37:06;2.80;;;1.30;;
66145;SDS011;52948;60.040;30.320;2023-07-28T21:42:09;2.53;;;1.52;;
66145;SDS011;52948;60.040;30.320;2023-07-28T21:47:11;1.85;;;0.93;;
66145;SDS011;52948;60.040;30.320;2023-07-28T21:52:13;1.17;;;1.05;;
66145;SDS011;52948;60.040;30.320;2023-07-28T21:57:15;1.15;;;0.80;;
66145;SDS011;52948;60.040;30.320;2023-07-28T22:02:17;1.00;;;1.00;;
66145;SDS011;52948;60.040;30.320;2023-07-28T22:07:20;2.03;;;0.90;;
66145;SDS011;52948;60.040;30.320;2023-07-28T22:12:23;2.20;;;0.93;;
66145;SDS011;52948;60.040;30.320;2023-07-28T22:17:25;2.67;;;1.40;;
66145;SDS011;52948;60.040;30.320;2023-07-28T22:22:28;1.65;;;1.10;;
66145;SDS011;52948;60.040;30.320;2023-07-28T22:27:30;2.03;;;0.93;;
66145;SDS011;52948;60.040;30.320;2023-07-28T22:32:32;2.72;;;1.25;;
66145;SDS011;52948;60.040;30.320;2023-07-28T22:37:34;1.05;;;0.80;;
66145;SDS011;52948;60.040;30.320;2023-07-28T22:42:37;3.10;;;1.02;;
66145;SDS011;52948;60.040;30.320;2023-07-28T22:47:39;1.58;;;1.00;;
66145;SDS011;52948;60.040;30.320;2023-07-28T22:52:41;1.80;;;0.90;;
66145;SDS011;52948;60.040;30.320;2023-07-28T22:57:43;1.40;;;1.10;;
66145;SDS011;52948;60.040;30.320;2023-07-28T23:02:45;1.15;;;0.90;;
66145;SDS011;52948;60.040;30.320;2023-07-28T23:07:48;1.83;;;0.82;;
66145;SDS011;52948;60.040;30.320;2023-07-28T23:12:50;1.73;;;0.90;;
66145;SDS011;52948;60.040;30.320;2023-07-28T23:17:53;1.15;;;1.00;;
66145;SDS011;52948;60.040;30.320;2023-07-28T23:22:55;1.90;;;0.95;;
66145;SDS011;52948;60.040;30.320;2023-07-28T23:27:58;2.15;;;1.00;;
66145;SDS011;52948;60.040;30.320;2023-07-28T23:33:00;2.10;;;1.10;;
66145;SDS011;52948;60.040;30.320;2023-07-28T23:38:02;1.88;;;1.27;;
66145;SDS011;52948;60.040;30.320;2023-07-28T23:43:04;1.73;;;1.30;;
66145;SDS011;52948;60.040;30.320;2023-07-28T23:48:06;3.45;;;1.40;;
66145;SDS011;52948;60.040;30.320;2023-07-28T23:53:08;2.55;;;1.38;;
66145;SDS011;52948;60.040;30.320;2023-07-28T23:58:11;3.17;;;1.65;;
